Time;durP1;ratioP1;P1;durP2;ratioP2;P2;SDS_P1;SDS_P2;PMS_P1;PMS_P2;Temp;Humidity;BMP_temperature;BMP_pressure;BME280_temperature;BME280_humidity;BME280_pressure;Samples;Min_cycle;Max_cycle;Signal;HPM_P1;HPM_P2
2022/11/20 00:01:39;;;;;;;79.22;46.50;;;;;;;10.91;86.61;100484.56;4851740;29;20507;-81
2022/11/20 00:04:11;;;;;;;90.38;49.60;;;;;;;10.99;86.18;100496.28;4853634;29;20528;-79
2022/11/20 00:06:40;;;;;;;84.85;47.05;;;;;;;10.99;86.32;100502.44;4852007;29;20147;-80
2022/11/20 00:09:10;;;;;;;85.95;46.55;;;;;;;10.96;87.15;100508.03;4854407;29;20194;-78
2022/11/20 00:11:37;;;;;;;92.25;47.03;;;;;;;10.14;86.74;100360.63;4854403;29;20310;-78
2022/11/20 00:14:05;;;;;;;87.18;47.90;;;;;;;10.93;86.68;100508.34;4853952;29;20061;-79
2022/11/20 00:16:33;;;;;;;89.95;47.53;;;;;;;10.87;86.37;100504.44;4869234;29;20072;-78
2022/11/20 00:19:09;;;;;;;85.78;47.58;;;;;;;10.74;86.86;100497.72;4851085;29;20063;-78
2022/11/20 00:21:39;;;;;;;93.18;48.00;;;;;;;10.50;87.96;100458.31;4852232;29;20341;-79
2022/11/20 00:24:09;;;;;;;90.50;47.58;;;;;;;10.82;87.30;100498.66;4856264;29;20060;-78
2022/11/20 00:26:36;;;;;;;82.32;43.95;;;;;;;10.56;87.27;100457.75;4853904;29;20659;-78
2022/11/20 00:29:06;;;;;;;93.35;47.33;;;;;;;10.65;87.70;100488.75;4854644;29;20530;-78
2022/11/20 00:31:35;;;;;;;90.38;47.55;;;;;;;10.76;87.09;100501.06;4853202;29;20056;-78
2022/11/20 00:34:02;;;;;;;97.55;46.78;;;;;;;10.22;87.36;100397.94;4854674;29;20253;-78
2022/11/20 00:36:34;;;;;;;81.00;46.78;;;;;;;10.99;86.66;100512.22;4853626;29;20538;-80
2022/11/20 00:39:01;;;;;;;87.40;45.97;;;;;;;10.84;86.58;100494.06;4856319;29;20227;-81
2022/11/20 00:41:33;;;;;;;;;;;;;;;10.99;85.89;100515.72;4854260;29;20483;-79
2022/11/20 00:43:59;;;;;;;81.50;43.33;;;;;;;10.81;85.78;100489.03;4854211;29;19935;-80
2022/11/20 00:46:29;;;;;;;83.95;41.70;;;;;;;10.76;85.71;100472.69;4853056;29;20554;-80
2022/11/20 00:48:56;;;;;;;75.28;42.92;;;;;;;10.19;85.97;100384.94;4855683;29;20052;-81
2022/11/20 00:51:25;;;;;;;80.72;43.42;;;;;;;11.13;84.59;100519.75;4854583;29;20538;-78
2022/11/20 00:53:59;;;;;;;77.10;42.47;;;;;;;10.88;84.84;100506.09;4852692;29;20052;-78
2022/11/20 00:56:26;;;;;;;75.45;41.60;;;;;;;10.70;85.39;100491.84;4852237;29;20052;-80
2022/11/20 00:58:59;;;;;;;86.43;42.78;;;;;;;10.55;84.43;100448.94;4852364;29;20052;-80
2022/11/20 01:01:29;;;;;;;74.70;42.50;;;;;;;10.98;84.68;100529.16;4852215;29;20056;-80
2022/11/20 01:03:58;;;;;;;82.00;43.70;;;;;;;10.75;85.04;100510.84;4853729;29;20068;-80
2022/11/20 01:06:28;;;;;;;83.00;42.83;;;;;;;10.32;85.00;100453.69;4854214;29;20135;-80
2022/11/20 01:09:00;;;;;;;76.63;42.88;;;;;;;10.73;84.23;100510.16;4856997;29;20786;-79
2022/11/20 01:11:38;;;;;;;77.88;44.05;;;;;;;10.71;84.90;100530.69;4858360;29;20520;-78
2022/11/20 01:14:09;;;;;;;78.80;43.83;;;;;;;10.67;84.83;100531.94;4855475;29;20908;-79
2022/11/20 01:16:39;;;;;;;72.72;42.28;;;;;;;10.57;85.54;100534.59;4853718;29;20094;-80
2022/11/20 01:19:11;;;;;;;83.00;44.83;;;;;;;10.64;86.08;100534.88;4850252;29;20438;-79
2022/11/20 01:21:45;;;;;;;76.43;43.15;;;;;;;10.39;85.74;100502.59;4850564;29;20637;-80
2022/11/20 01:24:18;;;;;;;81.05;45.33;;;;;;;10.67;86.20;100539.91;4851057;29;20176;-79
2022/11/20 01:26:49;;;;;;;80.53;43.75;;;;;;;10.40;85.33;100504.25;4853583;29;20048;-80
2022/11/20 01:29:26;;;;;;;81.03;45.63;;;;;;;10.12;85.31;100446.63;4852740;29;20072;-79
2022/11/20 01:31:59;;;;;;;72.25;42.17;;;;;;;10.44;85.18;100529.56;4852248;29;20477;-80
2022/11/20 01:34:26;;;;;;;84.07;46.97;;;;;;;10.51;85.44;100535.16;4851833;29;20080;-79
2022/11/20 01:36:53;;;;;;;75.53;43.28;;;;;;;10.55;85.53;100546.31;4858504;29;20059;-79
2022/11/20 01:39:25;;;;;;;83.10;43.42;;;;;;;10.51;85.34;100544.91;4854620;29;20143;-79
2022/11/20 01:44:54;;;;;;;71.72;37.85;;;;;;;10.53;86.08;100550.94;4859327;29;19935;-80
2022/11/20 01:47:34;;;;;;;77.72;42.70;;;;;;;10.47;85.40;100545.19;4855444;29;20155;-78
2022/11/20 01:50:22;;;;;;;71.57;42.40;;;;;;;10.38;85.70;100551.31;4870819;29;20060;-80
2022/11/20 01:52:59;;;;;;;76.97;43.40;;;;;;;10.41;85.73;100561.69;4857479;29;20605;-79
2022/11/20 01:55:32;;;;;;;77.28;43.90;;;;;;;10.44;85.72;100565.88;4848012;29;20299;-79
2022/11/20 01:58:01;;;;;;;79.90;43.47;;;;;;;10.36;85.85;100558.56;4855318;29;20056;-80
2022/11/20 02:00:28;;;;;;;78.00;43.08;;;;;;;10.44;86.09;100568.53;4855440;29;20076;-80
2022/11/20 02:03:03;;;;;;;75.00;42.28;;;;;;;10.41;86.10;100561.69;4855831;29;20534;-78
2022/11/20 02:06:01;;;;;;;77.43;45.03;;;;;;;10.26;86.25;100525.84;4859892;29;20124;-81
2022/11/20 02:08:28;;;;;;;60.65;35.78;;;;;;;10.66;86.28;100570.09;4854872;29;20056;-80
2022/11/20 02:10:55;;;;;;;79.78;42.47;;;;;;;10.55;84.69;100546.31;4834227;29;20409;-80
2022/11/20 02:13:44;;;;;;;73.45;39.08;;;;;;;10.64;84.84;100582.66;4835525;29;20650;-79
2022/11/20 02:16:28;;;;;;;81.18;43.65;;;;;;;10.27;85.35;100527.53;4841263;29;20061;-80
2022/11/20 02:18:58;;;;;;;77.95;42.05;;;;;;;10.69;84.61;100591.06;4857908;29;20263;-78
2022/11/20 02:21:28;;;;;;;82.32;42.53;;;;;;;10.73;85.32;100599.56;4874005;29;20296;-80
2022/11/20 02:24:18;;;;;;;79.63;42.65;;;;;;;10.35;85.08;100540.97;4872781;29;20502;-80
2022/11/20 02:26:56;;;;;;;66.45;39.30;;;;;;;10.69;85.09;100581.28;4870368;29;20055;-80
2022/11/20 02:29:32;;;;;;;77.47;42.28;;;;;;;10.78;83.73;100584.94;4853997;29;20059;-79
2022/11/20 02:32:01;;;;;;;75.93;44.58;;;;;;;10.54;84.16;100560.59;4886402;29;20115;-80
2022/11/20 02:34:31;;;;;;;80.00;44.15;;;;;;;10.46;85.19;100570.06;4885775;29;20080;-80
2022/11/20 02:37:01;;;;;;;81.43;42.03;;;;;;;10.33;85.23;100558.84;4874690;29;20056;-78
2022/11/20 02:39:35;;;;;;;76.63;41.13;;;;;;;10.40;85.48;100581.22;4859371;29;20604;-79
2022/11/20 02:42:02;;;;;;;76.97;42.78;;;;;;;10.34;85.40;100571.16;4857899;29;20886;-80
2022/11/20 02:44:29;;;;;;;70.05;40.25;;;;;;;10.22;85.64;100556.28;4870630;29;20401;-79
2022/11/20 02:46:59;;;;;;;77.47;41.42;;;;;;;10.50;84.80;100583.88;4870904;29;20139;-80
2022/11/20 02:49:28;;;;;;;77.40;42.53;;;;;;;10.46;84.86;100596.63;4872375;29;20112;-81
2022/11/20 02:51:57;;;;;;;77.03;41.85;;;;;;;10.30;85.62;100575.03;4856863;29;20643;-80
2022/11/20 02:54:26;;;;;;;73.50;41.67;;;;;;;10.44;85.46;100582.63;4857145;29;20089;-80
2022/11/20 02:56:56;;;;;;;77.15;43.83;;;;;;;10.19;85.16;100536.16;4855446;29;20124;-79
2022/11/20 02:59:22;;;;;;;78.72;42.83;;;;;;;10.46;85.46;100572.72;4855604;29;20361;-80
2022/11/20 03:01:49;;;;;;;76.40;41.47;;;;;;;10.55;85.23;100594.09;4857762;29;20366;-79
2022/11/20 03:04:16;;;;;;;73.85;41.28;;;;;;;10.50;85.21;100586.53;4855866;29;20056;-78
2022/11/20 03:06:43;;;;;;;75.78;42.25;;;;;;;10.40;85.20;100567.94;4854031;29;20071;-79
2022/11/20 03:09:12;;;;;;;79.00;41.30;;;;;;;10.39;85.20;100571.59;4858669;29;20052;-81
2022/11/20 03:11:39;;;;;;;75.65;39.92;;;;;;;10.30;85.29;100555.66;4856975;29;20593;-79
2022/11/20 03:14:05;;;;;;;70.70;39.85;;;;;;;10.37;84.96;100576.19;4855142;29;20090;-81
2022/11/20 03:16:32;;;;;;;77.78;41.53;;;;;;;10.43;85.22;100586.25;4852478;29;20097;-80
2022/11/20 03:19:03;;;;;;;78.88;40.60;;;;;;;10.50;84.68;100575.94;4840798;29;20093;-80
2022/11/20 03:21:29;;;;;;;71.38;41.50;;;;;;;10.46;84.48;100580.69;4838673;29;20061;-80
2022/11/20 03:23:56;;;;;;;76.88;41.47;;;;;;;10.41;84.56;100567.00;4839229;29;20068;-80
2022/11/20 03:26:26;;;;;;;73.60;41.47;;;;;;;10.36;84.31;100571.00;4837766;29;20727;-79
2022/11/20 03:28:58;;;;;;;76.65;40.90;;;;;;;10.47;84.27;100587.66;4840385;29;20732;-78
2022/11/20 03:31:31;;;;;;;69.72;40.20;;;;;;;10.51;84.48;100587.38;4871810;29;20487;-79
2022/11/20 03:33:59;;;;;;;68.10;38.75;;;;;;;10.53;84.65;100596.06;4876617;29;20055;-78
2022/11/20 03:36:39;;;;;;;75.78;40.00;;;;;;;10.48;84.52;100573.44;4872610;29;20048;-79
2022/11/20 03:39:05;;;;;;;75.85;40.17;;;;;;;10.63;83.93;100604.88;4876246;29;20237;-80
2022/11/20 03:41:37;;;;;;;77.60;40.65;;;;;;;10.69;82.94;100601.69;4874265;29;20084;-80
2022/11/20 03:44:06;;;;;;;76.07;40.78;;;;;;;10.59;83.12;100598.16;4858879;29;20619;-79
2022/11/20 03:46:32;;;;;;;63.45;37.50;;;;;;;10.68;83.76;100605.31;4855488;29;20371;-81
2022/11/20 03:49:00;;;;;;;80.00;41.15;;;;;;;10.62;83.69;100605.84;4857109;29;20225;-81
2022/11/20 03:51:36;;;;;;;68.82;40.63;;;;;;;10.60;83.37;100598.03;4858784;29;20173;-80
2022/11/20 03:54:10;;;;;;;68.35;41.05;;;;;;;10.48;82.89;100599.09;4854044;29;20499;-80
2022/11/20 03:56:38;;;;;;;73.43;40.70;;;;;;;10.61;83.13;100615.66;4855586;29;20075;-80
2022/11/20 03:59:05;;;;;;;77.38;41.95;;;;;;;10.41;83.36;100588.22;4855363;29;20132;-80
2022/11/20 04:01:35;;;;;;;73.22;40.92;;;;;;;10.51;83.25;100600.66;4855713;29;20377;-80
2022/11/20 04:04:06;;;;;;;74.00;41.35;;;;;;;10.54;83.42;100626.94;4855523;29;20091;-80
2022/11/20 04:06:37;;;;;;;80.65;42.65;;;;;;;10.11;82.75;100545.78;4855919;29;20475;-79
2022/11/20 04:09:05;;;;;;;80.43;44.63;;;;;;;10.36;83.30;100600.19;4866462;29;20087;-79
2022/11/20 04:11:34;;;;;;;73.47;42.30;;;;;;;10.24;83.43;100578.19;4859725;29;20072;-81
2022/11/20 04:14:06;;;;;;;81.22;43.17;;;;;;;10.41;84.18;100612.09;4860359;29;20519;-81
2022/11/20 04:16:34;;;;;;;87.47;46.60;;;;;;;10.47;83.23;100603.59;4873949;29;20410;-81
2022/11/20 04:19:03;;;;;;;78.28;44.85;;;;;;;10.31;83.57;100603.25;4875830;29;20383;-80
2022/11/20 04:21:30;;;;;;;83.85;45.20;;;;;;;10.27;84.20;100605.31;4873133;29;20048;-79
2022/11/20 04:23:57;;;;;;;73.50;45.35;;;;;;;10.34;83.79;100618.91;4849403;29;20060;-80
2022/11/20 04:26:26;;;;;;;87.43;46.15;;;;;;;10.21;83.48;100586.44;4853218;29;20279;-81
2022/11/20 04:28:57;;;;;;;85.47;46.70;;;;;;;9.47;83.91;100468.22;4856143;29;20230;-81
2022/11/20 04:31:29;;;;;;;75.90;43.83;;;;;;;10.23;84.25;100611.03;4850674;29;20064;-81
2022/11/20 04:34:00;;;;;;;81.30;45.00;;;;;;;10.08;84.36;100585.84;4854365;29;20155;-79
2022/11/20 04:36:28;;;;;;;85.10;47.05;;;;;;;9.86;84.46;100544.44;4855157;29;20356;-79
2022/11/20 04:39:04;;;;;;;89.55;45.38;;;;;;;10.27;84.39;100607.13;4853907;29;20317;-80
2022/11/20 04:41:33;;;;;;;87.22;47.10;;;;;;;9.75;83.93;100521.50;4852497;29;20144;-79
2022/11/20 04:44:06;;;;;;;84.93;45.58;;;;;;;10.42;83.88;100620.91;4850439;29;20510;-79
2022/11/20 04:46:37;;;;;;;87.60;46.20;;;;;;;10.40;84.03;100620.19;4851861;29;20593;-78
2022/11/20 04:49:10;;;;;;;87.38;45.55;;;;;;;9.88;84.17;100556.59;4848933;29;20056;-79
2022/11/20 04:51:40;;;;;;;89.90;49.35;;;;;;;10.05;84.26;100592.25;4851190;29;20052;-80
2022/11/20 04:54:08;;;;;;;92.82;48.58;;;;;;;10.25;83.78;100625.81;4855977;29;20327;-79
2022/11/20 04:56:44;;;;;;;86.35;47.28;;;;;;;10.31;83.99;100624.47;4812645;29;20178;-79
2022/11/20 04:59:19;;;;;;;87.22;47.50;;;;;;;10.14;84.14;100615.31;4808880;29;20076;-79
2022/11/20 05:02:01;;;;;;;87.28;48.05;;;;;;;10.21;84.09;100619.09;4812239;29;20534;-78
2022/11/20 05:04:37;;;;;;;83.22;48.05;;;;;;;10.18;83.55;100613.25;4812518;29;20222;-77
2022/11/20 05:07:06;;;;;;;83.05;45.17;;;;;;;9.98;83.87;100591.09;4806744;29;20756;-79
2022/11/20 05:09:46;;;;;;;85.18;48.72;;;;;;;9.98;84.03;100593.75;4817510;29;20796;-79
2022/11/20 05:12:23;;;;;;;87.78;50.10;;;;;;;10.06;84.03;100621.28;4801213;29;20056;-81
2022/11/20 05:15:03;;;;;;;79.90;45.60;;;;;;;9.88;83.95;100600.81;4798420;29;20538;-79
2022/11/20 05:17:33;;;;;;;86.68;49.03;;;;;;;10.03;84.06;100632.16;4817446;29;20510;-79
2022/11/20 05:19:59;;;;;;;96.00;49.33;;;;;;;9.54;84.18;100555.97;4815987;29;20378;-79
2022/11/20 05:22:35;;;;;;;96.80;50.15;;;;;;;10.02;84.36;100641.09;4808091;29;20537;-81
2022/11/20 05:25:16;;;;;;;84.68;49.28;;;;;;;9.71;84.61;100605.75;4807650;29;20068;-80
2022/11/20 05:27:48;;;;;;;92.05;49.60;;;;;;;9.98;84.94;100652.94;4808277;29;20334;-81
2022/11/20 05:30:30;;;;;;;84.15;48.13;;;;;;;9.40;85.02;100559.81;4830094;29;20752;-79
2022/11/20 05:33:13;;;;;;;91.53;50.53;;;;;;;9.95;85.15;100645.25;4819052;29;20045;-80
2022/11/20 05:35:42;;;;;;;83.70;49.72;;;;;;;10.06;84.59;100647.81;4821459;29;20321;-80
2022/11/20 05:38:18;;;;;;;88.22;49.63;;;;;;;10.11;84.32;100654.53;4821035;29;20064;-80
2022/11/20 05:41:08;;;;;;;89.18;49.75;;;;;;;10.18;84.04;100668.94;4831287;29;20684;-80
2022/11/20 05:43:36;;;;;;;84.13;49.25;;;;;;;10.26;84.42;100680.56;4832814;29;20249;-80
2022/11/20 05:46:08;;;;;;;86.55;48.92;;;;;;;10.09;83.82;100652.00;4823129;29;20094;-78
2022/11/20 05:48:37;;;;;;;86.63;49.63;;;;;;;10.27;83.24;100681.44;4846836;29;20501;-79
2022/11/20 05:51:09;;;;;;;95.05;48.42;;;;;;;10.24;83.46;100692.28;4878941;29;20075;-78
2022/11/20 05:53:45;;;;;;;92.30;49.88;;;;;;;10.20;83.38;100696.19;4847299;29;20068;-80
2022/11/20 05:56:17;;;;;;;88.70;50.05;;;;;;;9.97;83.55;100653.06;4854624;29;20173;-78
2022/11/20 05:58:45;;;;;;;95.57;51.72;;;;;;;10.24;83.18;100702.91;4841953;29;20164;-80
2022/11/20 06:01:15;;;;;;;96.85;50.78;;;;;;;9.96;83.28;100673.44;4848088;29;20056;-79
2022/11/20 06:03:53;;;;;;;106.20;53.78;;;;;;;10.11;83.23;100694.31;4844970;29;20056;-79
2022/11/20 06:06:25;;;;;;;98.05;52.53;;;;;;;10.05;83.60;100703.66;4858249;29;20577;-80
2022/11/20 06:08:52;;;;;;;95.13;51.38;;;;;;;10.03;84.07;100717.03;4860062;29;20553;-78
2022/11/20 06:11:29;;;;;;;87.43;51.05;;;;;;;9.98;83.80;100710.44;4827242;29;20502;-81
2022/11/20 06:14:04;;;;;;;87.78;49.47;;;;;;;9.74;83.93;100662.97;4837489;29;20482;-79
2022/11/20 06:16:35;;;;;;;88.35;49.53;;;;;;;9.80;84.23;100678.34;4838187;29;20076;-79
2022/11/20 06:19:07;;;;;;;91.63;51.25;;;;;;;9.80;84.08;100689.78;4852560;29;20382;-80
2022/11/20 06:21:37;;;;;;;92.45;49.42;;;;;;;9.91;84.25;100696.03;4837696;29;20555;-77
2022/11/20 06:24:15;;;;;;;92.90;51.47;;;;;;;9.82;84.25;100690.50;4831525;29;20052;-78
2022/11/20 06:26:46;;;;;;;93.00;52.47;;;;;;;9.83;84.29;100699.31;4837466;29;20056;-78
2022/11/20 06:29:21;;;;;;;99.00;51.47;;;;;;;9.56;84.07;100646.78;4845240;29;20496;-78
2022/11/20 06:32:13;;;;;;;97.20;50.75;;;;;;;9.88;84.03;100683.88;4797753;29;20560;-78
2022/11/20 06:35:06;;;;;;;100.82;51.05;;;;;;;10.03;83.93;100708.25;4810205;28;20207;-74
2022/11/20 06:37:32;;;;;;;90.10;51.03;;;;;;;10.09;83.38;100701.56;4822373;29;20063;-79
2022/11/20 06:39:59;;;;;;;94.15;51.38;;;;;;;10.14;83.09;100717.94;4881349;29;20083;-78
2022/11/20 06:42:26;;;;;;;93.85;52.58;;;;;;;9.92;83.09;100698.53;4893529;28;20055;-79
2022/11/20 06:44:53;;;;;;;100.47;51.33;;;;;;;9.88;83.14;100693.59;4897821;29;20503;-79
2022/11/20 06:47:19;;;;;;;93.18;51.95;;;;;;;10.10;83.04;100721.78;4900443;29;20211;-79
2022/11/20 06:49:46;;;;;;;82.95;47.15;;;;;;;10.19;82.92;100715.72;4905643;28;20079;-79
2022/11/20 06:52:13;;;;;;;97.43;51.95;;;;;;;10.18;82.79;100724.66;4876793;29;20072;-77
2022/11/20 06:54:40;;;;;;;92.60;49.60;;;;;;;10.16;83.02;100723.94;4879461;29;20430;-79
2022/11/20 06:57:07;;;;;;;92.05;51.53;;;;;;;9.97;83.08;100712.22;4878049;29;20168;-78
2022/11/20 06:59:34;;;;;;;96.55;53.42;;;;;;;10.19;82.41;100721.03;4887690;29;20055;-78
2022/11/20 07:02:05;;;;;;;86.90;50.08;;;;;;;10.01;82.74;100724.28;4872205;29;20143;-77
2022/11/20 07:04:32;;;;;;;95.10;53.80;;;;;;;10.09;82.93;100747.50;4878676;29;20056;-81
2022/11/20 07:07:01;;;;;;;95.28;51.47;;;;;;;10.04;83.00;100747.88;4878549;29;20063;-80
2022/11/20 07:09:28;;;;;;;101.15;54.17;;;;;;;9.92;83.38;100718.91;4878911;29;20060;-81
2022/11/20 07:11:57;;;;;;;101.80;54.13;;;;;;;10.15;82.94;100751.47;4875819;29;20901;-77
2022/11/20 07:14:25;;;;;;;101.30;52.42;;;;;;;9.99;83.23;100720.06;4879256;29;20444;-79
2022/11/20 07:16:52;;;;;;;91.25;49.25;;;;;;;10.28;83.10;100760.06;4880282;29;20052;-81
2022/11/20 07:19:22;;;;;;;97.72;51.92;;;;;;;9.84;81.75;100677.13;4879363;29;20047;-78
2022/11/20 07:21:49;;;;;;;100.43;51.97;;;;;;;10.40;81.64;100774.94;4879103;29;20056;-79
2022/11/20 07:24:15;;;;;;;72.90;41.78;;;;;;;10.30;82.57;100754.66;4877140;29;20052;-81
2022/11/20 07:26:46;;;;;;;93.43;51.05;;;;;;;10.47;82.08;100773.44;4880532;29;20649;-78
2022/11/20 07:29:13;;;;;;;93.15;49.45;;;;;;;10.60;81.05;100780.34;4903357;28;20052;-79
2022/11/20 07:31:43;;;;;;;86.18;49.45;;;;;;;10.47;80.39;100762.84;4897999;29;20565;-79
2022/11/20 07:34:12;;;;;;;95.57;51.28;;;;;;;10.42;80.96;100764.22;4896426;29;20417;-76
2022/11/20 07:36:41;;;;;;;90.82;49.65;;;;;;;10.26;81.44;100762.81;4895755;29;20267;-78
2022/11/20 07:39:08;;;;;;;91.93;46.38;;;;;;;10.41;81.50;100779.31;4894797;29;20070;-77
2022/11/20 07:41:35;;;;;;;96.07;50.65;;;;;;;10.16;81.57;100738.03;4900150;29;20908;-78
2022/11/20 07:44:04;;;;;;;85.53;47.33;;;;;;;10.38;81.28;100762.78;4895957;29;20335;-77
2022/11/20 07:46:31;;;;;;;87.32;49.50;;;;;;;10.60;81.62;100793.63;4878080;29;20242;-79
2022/11/20 07:48:58;;;;;;;94.93;51.10;;;;;;;10.47;81.09;100778.75;4908467;28;20462;-78
2022/11/20 07:51:27;;;;;;;87.00;47.58;;;;;;;10.60;80.55;100772.41;4918056;28;20063;-77
2022/11/20 07:53:55;;;;;;;88.15;48.75;;;;;;;10.66;80.29;100793.13;4915423;29;20476;-77
2022/11/20 07:56:22;;;;;;;88.65;47.33;;;;;;;10.28;81.25;100736.19;4917976;28;20543;-77
2022/11/20 07:58:49;;;;;;;92.20;49.53;;;;;;;10.46;80.63;100763.81;4917119;28;20564;-76
2022/11/20 08:01:15;;;;;;;88.65;49.33;;;;;;;10.82;79.66;100809.38;4888804;29;20063;-77
2022/11/20 08:03:42;;;;;;;84.78;48.22;;;;;;;10.76;79.87;100817.91;4892250;29;20135;-79
2022/11/20 08:06:09;;;;;;;87.82;47.72;;;;;;;10.60;78.93;100767.09;4899140;29;20075;-78
2022/11/20 08:08:36;;;;;;;87.20;48.22;;;;;;;10.65;79.72;100786.94;4897831;29;20126;-78
2022/11/20 08:14:13;;;;;;;81.22;47.15;;;;;;;10.93;79.78;100821.75;4896557;29;20513;-78
2022/11/20 08:16:49;;;;;;;76.90;41.45;;;;;;;11.00;79.56;100822.06;4894957;29;20816;-79
2022/11/20 08:19:18;;;;;;;80.32;44.50;;;;;;;9.69;79.87;100597.09;4897213;29;20500;-78
2022/11/20 08:21:48;;;;;;;71.68;40.97;;;;;;;11.18;79.54;100833.72;4898267;29;20058;-78
2022/11/20 08:24:17;;;;;;;81.85;45.95;;;;;;;11.25;78.87;100821.56;4896513;29;20055;-77
2022/11/20 08:26:46;;;;;;;75.82;42.40;;;;;;;11.46;76.97;100839.28;4899233;29;20142;-77
2022/11/20 08:29:13;;;;;;;73.82;42.92;;;;;;;11.40;77.15;100829.19;4896791;29;20639;-79
2022/11/20 08:31:40;;;;;;;74.35;41.55;;;;;;;11.43;76.54;100831.56;4898981;29;20083;-78
2022/11/20 08:34:07;;;;;;;74.63;41.22;;;;;;;11.49;77.42;100839.00;4897253;29;20602;-79
2022/11/20 08:36:36;;;;;;;81.30;45.40;;;;;;;11.46;77.17;100833.97;4896988;29;20240;-77
2022/11/20 08:39:03;;;;;;;86.97;45.08;;;;;;;11.28;77.13;100828.44;4896318;29;20513;-79
2022/11/20 08:41:32;;;;;;;78.75;46.70;;;;;;;11.23;77.79;100831.50;4897375;29;20086;-78
2022/11/20 08:44:06;;;;;;;71.77;39.27;;;;;;;11.39;77.83;100846.94;4896819;29;20051;-78
2022/11/20 08:46:43;;;;;;;82.25;45.72;;;;;;;11.40;77.54;100856.59;4879632;29;20166;-78
2022/11/20 08:49:12;;;;;;;82.63;44.60;;;;;;;11.25;78.46;100832.22;4897963;29;20050;-78
2022/11/20 08:51:39;;;;;;;72.88;42.65;;;;;;;10.89;77.07;100741.47;4918581;28;20220;-76
2022/11/20 08:54:07;;;;;;;71.03;38.45;;;;;;;11.21;77.14;100798.91;4913578;28;20493;-78
2022/11/20 08:56:34;;;;;;;78.00;44.95;;;;;;;11.52;77.23;100844.88;4899212;29;20069;-78
2022/11/20 08:59:06;;;;;;;81.32;44.92;;;;;;;11.67;76.91;100858.59;4897149;29;20087;-79
2022/11/20 09:01:53;;;;;;;77.88;43.63;;;;;;;11.60;76.71;100856.63;4895706;29;20514;-78
2022/11/20 09:04:22;;;;;;;78.65;43.67;;;;;;;11.28;77.11;100810.66;4898640;29;20167;-78
2022/11/20 09:06:51;;;;;;;80.85;44.55;;;;;;;11.00;77.51;100774.25;4898839;29;20418;-77
2022/11/20 09:09:21;;;;;;;58.40;35.30;;;;;;;11.80;77.59;100877.00;4897530;29;20591;-77
2022/11/20 09:11:50;;;;;;;63.08;36.15;;;;;;;11.95;77.13;100880.94;4899153;29;20506;-78
2022/11/20 09:14:17;;;;;;;62.53;35.45;;;;;;;12.07;77.16;100880.84;4899596;29;20073;-77
2022/11/20 09:16:46;;;;;;;79.47;44.72;;;;;;;12.19;76.35;100885.03;4899918;29;20302;-77
2022/11/20 09:19:13;;;;;;;74.90;45.17;;;;;;;12.17;76.12;100861.22;4898763;29;20051;-77
2022/11/20 09:22:04;;;;;;;78.07;43.80;;;;;;;12.31;75.59;100873.25;4899185;29;20048;-77
2022/11/20 09:24:31;;;;;;;82.82;44.88;;;;;;;12.35;74.57;100884.47;4898164;29;20843;-79
2022/11/20 09:27:06;;;;;;;72.18;40.17;;;;;;;12.27;74.80;100881.66;4901047;29;20051;-78
2022/11/20 09:29:34;;;;;;;77.03;44.70;;;;;;;12.30;75.67;100892.03;4899153;29;20062;-77
2022/11/20 09:32:03;;;;;;;72.90;42.85;;;;;;;12.32;75.68;100890.06;4901869;29;20133;-79
2022/11/20 09:34:33;;;;;;;68.70;37.67;;;;;;;12.25;75.10;100857.00;4894455;29;20795;-78
2022/11/20 09:37:00;;;;;;;75.22;43.42;;;;;;;12.45;75.32;100893.31;4895099;29;20052;-78
2022/11/20 09:39:33;;;;;;;80.93;44.63;;;;;;;12.40;75.17;100877.75;4899214;29;20066;-78
2022/11/20 09:42:38;;;;;;;84.50;44.92;;;;;;;12.63;74.47;100881.91;4902308;29;20054;-79
2022/11/20 09:45:18;;;;;;;77.32;44.45;;;;;;;12.34;74.47;100857.00;4914883;29;20046;-76
2022/11/20 09:48:00;;;;;;;74.22;42.55;;;;;;;12.59;74.29;100892.84;4916336;29;20492;-77
2022/11/20 09:51:09;;;;;;;78.82;44.42;;;;;;;12.51;74.29;100898.03;4951423;28;20074;-76
2022/11/20 09:54:15;;;;;;;82.32;45.35;;;;;;;12.51;74.35;100900.72;4920535;28;20055;-77
2022/11/20 09:56:46;;;;;;;81.47;44.83;;;;;;;12.41;74.76;100870.59;4917752;29;20047;-78
2022/11/20 09:59:31;;;;;;;82.30;43.30;;;;;;;12.63;74.46;100889.91;4909999;28;20526;-79
2022/11/20 10:02:05;;;;;;;84.65;45.80;;;;;;;12.66;73.78;100881.63;4900900;29;20059;-78
2022/11/20 10:04:47;;;;;;;79.15;43.70;;;;;;;12.43;74.15;100860.66;4901869;29;20580;-76
2022/11/20 10:07:30;;;;;;;78.47;44.55;;;;;;;12.64;73.83;100884.41;4902213;29;20436;-79
2022/11/20 10:09:59;;;;;;;90.32;45.15;;;;;;;12.59;73.46;100886.69;4904734;29;20119;-79
2022/11/20 10:13:10;;;;;;;78.45;44.00;;;;;;;12.69;73.10;100884.00;4902316;29;20126;-79
2022/11/20 10:15:59;;;;;;;73.40;38.95;;;;;;;12.50;73.76;100891.06;4897066;29;20589;-80
2022/11/20 10:18:37;;;;;;;73.30;39.72;;;;;;;12.11;74.29;100823.66;4903066;29;20823;-78
2022/11/20 10:21:43;;;;;;;79.68;46.38;;;;;;;12.53;74.09;100872.13;4901796;29;20139;-79
2022/11/20 10:24:52;;;;;;;72.88;38.13;;;;;;;12.63;74.32;100879.25;4904410;29;20441;-78
2022/11/20 10:27:38;;;;;;;76.95;44.78;;;;;;;12.71;74.92;100882.88;4913427;29;20099;-79
2022/11/20 10:30:15;;;;;;;68.32;39.10;;;;;;;12.70;73.53;100867.88;4904458;29;20233;-76
2022/11/20 10:32:47;;;;;;;77.95;40.78;;;;;;;12.50;74.23;100829.81;4882975;29;20431;-79
2022/11/20 10:35:23;;;;;;;81.87;44.73;;;;;;;12.93;73.31;100880.84;4886747;29;20103;-76
2022/11/20 10:38:00;;;;;;;81.25;46.40;;;;;;;12.51;73.27;100799.53;4882692;29;20806;-79
2022/11/20 10:40:37;;;;;;;89.28;48.33;;;;;;;13.11;72.36;100878.28;4880826;29;20152;-77
2022/11/20 10:43:11;;;;;;;81.55;48.03;;;;;;;13.09;71.57;100862.44;4880353;29;20324;-80
2022/11/20 10:45:48;;;;;;;85.20;47.45;;;;;;;12.79;71.78;100804.88;4892695;29;20052;-77
2022/11/20 10:48:26;;;;;;;89.20;50.25;;;;;;;13.29;71.53;100873.88;4882080;29;20063;-79
2022/11/20 10:51:15;;;;;;;87.07;49.47;;;;;;;13.37;71.48;100871.31;4921734;29;20313;-78
2022/11/20 10:53:54;;;;;;;85.25;47.72;;;;;;;13.35;70.09;100851.97;4919462;29;20051;-76
2022/11/20 10:56:53;;;;;;;82.95;48.75;;;;;;;13.39;72.20;100868.50;4914775;29;20592;-77
2022/11/20 10:59:38;;;;;;;85.28;49.83;;;;;;;13.44;70.58;100867.06;4906721;28;20055;-78
2022/11/20 11:02:24;;;;;;;71.40;38.20;;;;;;;13.37;71.10;100844.63;4899393;29;20123;-79
2022/11/20 11:04:53;;;;;;;81.78;47.78;;;;;;;13.51;71.46;100863.81;4897436;29;20162;-77
2022/11/20 11:07:25;;;;;;;88.35;48.10;;;;;;;13.45;71.52;100852.75;4899677;29;20055;-78
2022/11/20 11:09:56;;;;;;;77.80;44.67;;;;;;;13.44;69.99;100856.38;4891041;29;20055;-78
2022/11/20 11:12:25;;;;;;;83.28;46.03;;;;;;;13.35;69.58;100841.31;4877179;29;20075;-81
2022/11/20 11:15:00;;;;;;;85.93;50.78;;;;;;;13.29;69.84;100852.56;4875263;29;20055;-79
2022/11/20 11:17:29;;;;;;;70.15;40.25;;;;;;;12.98;71.37;100812.81;4863216;29;20418;-79
2022/11/20 11:20:17;;;;;;;80.30;44.05;;;;;;;12.96;71.85;100814.81;4882171;29;20051;-78
2022/11/20 11:22:51;;;;;;;88.80;50.17;;;;;;;12.97;70.83;100803.16;4882177;29;20622;-78
2022/11/20 11:25:27;;;;;;;70.82;41.83;;;;;;;12.88;71.20;100809.34;4878899;29;20141;-79
2022/11/20 11:28:17;;;;;;;80.20;45.03;;;;;;;13.04;70.61;100822.88;4933916;28;20526;-78
2022/11/20 11:30:49;;;;;;;73.20;40.20;;;;;;;12.82;71.21;100804.63;4901545;29;20867;-79
2022/11/20 11:33:24;;;;;;;75.65;44.00;;;;;;;12.96;70.93;100824.59;4890029;29;20139;-78
2022/11/20 11:35:58;;;;;;;95.28;50.00;;;;;;;12.90;71.42;100818.03;4916129;28;20518;-77
2022/11/20 11:38:36;;;;;;;85.57;48.10;;;;;;;12.98;71.75;100826.13;4884442;29;20555;-79
2022/11/20 11:41:05;;;;;;;88.35;50.75;;;;;;;12.81;72.42;100785.09;4889302;29;20127;-77